createdAt,value
2022-09-11T00:01:33.397Z,101917.09
2022-09-11T00:04:00.517Z,101930.22
2022-09-11T00:06:30.141Z,101931.59
2022-09-11T00:09:01.396Z,101928.97
2022-09-11T00:11:40.695Z,101925.81
2022-09-11T00:14:10.393Z,101931.09
2022-09-11T00:16:41.451Z,101936.88
2022-09-11T00:19:13.991Z,101938.50
2022-09-11T00:21:40.692Z,101936.44
2022-09-11T00:24:10.731Z,101937.78
2022-09-11T00:26:38.944Z,101939.13
2022-09-11T00:29:05.682Z,101934.16
2022-09-11T00:31:32.795Z,101942.59
2022-09-11T00:34:00.130Z,101938.69
2022-09-11T00:36:36.363Z,101938.19
2022-09-11T00:39:03.689Z,101933.50
2022-09-11T00:41:36.599Z,101941.91
2022-09-11T00:44:08.997Z,101931.97
2022-09-11T00:46:48.889Z,101931.47
2022-09-11T00:49:21.178Z,101932.53
2022-09-11T00:51:53.575Z,101929.66
2022-09-11T00:54:29.045Z,101936.84
2022-09-11T00:56:59.030Z,101938.97
2022-09-11T00:59:28.079Z,101943.72
2022-09-11T01:01:55.316Z,101939.22
2022-09-11T01:04:23.448Z,101936.88
2022-09-11T01:06:55.229Z,101936.09
2022-09-11T01:09:22.604Z,101932.69
2022-09-11T01:11:55.802Z,101932.47
2022-09-11T01:14:45.802Z,101936.44
2022-09-11T01:17:26.705Z,101934.84
2022-09-11T01:20:27.349Z,101928.59
2022-09-11T01:23:02.966Z,101935.97
2022-09-11T01:26:23.554Z,101940.13
2022-09-11T01:29:20.826Z,101945.44
2022-09-11T01:32:16.677Z,101943.09
2022-09-11T01:34:57.364Z,101956.47
2022-09-11T01:37:50.264Z,101957.53
2022-09-11T01:40:24.689Z,101957.53
2022-09-11T01:42:59.674Z,101962.00
2022-09-11T01:45:27.538Z,101960.16
2022-09-11T01:47:55.861Z,101961.19
2022-09-11T01:50:25.145Z,101965.94
2022-09-11T01:52:58.333Z,101968.06
2022-09-11T01:55:39.677Z,101959.69
2022-09-11T01:58:09.670Z,101963.38
2022-09-11T02:00:40.401Z,101971.53
2022-09-11T02:03:31.484Z,101962.38
2022-09-11T02:06:03.889Z,101956.09
2022-09-11T02:08:36.329Z,101956.38
2022-09-11T02:11:10.492Z,101957.41
2022-09-11T02:13:46.031Z,101956.13
2022-09-11T02:16:25.915Z,101961.94
2022-09-11T02:19:05.109Z,101957.72
2022-09-11T02:21:33.697Z,101959.59
2022-09-11T02:24:01.897Z,101957.28
2022-09-11T02:26:32.125Z,101957.81
2022-09-11T02:28:59.390Z,101963.06
2022-09-11T02:31:26.436Z,101961.50
2022-09-11T02:33:53.200Z,101969.91
2022-09-11T02:36:31.968Z,101973.06
2022-09-11T02:39:13.488Z,101976.75
2022-09-11T02:42:07.333Z,101971.78
2022-09-11T02:44:38.936Z,101984.63
2022-09-11T02:47:11.241Z,101981.53
2022-09-11T02:49:59.630Z,101982.88
2022-09-11T02:52:43.063Z,101983.13
2022-09-11T02:55:41.815Z,101984.19
2022-09-11T02:58:33.334Z,101985.25
2022-09-11T03:01:04.516Z,101988.41
2022-09-11T03:03:44.568Z,101987.31
2022-09-11T03:06:17.183Z,101986.28
2022-09-11T03:08:44.672Z,101986.28
2022-09-11T03:11:11.473Z,101987.63
2022-09-11T03:13:38.312Z,101985.25
2022-09-11T03:16:05.734Z,101987.09
2022-09-11T03:18:33.260Z,101980.53
2022-09-11T03:21:01.239Z,101987.88
2022-09-11T03:23:28.303Z,101992.34
2022-09-11T03:25:55.711Z,101991.31
2022-09-11T03:28:22.968Z,101987.41
2022-09-11T03:30:50.595Z,101995.53
2022-09-11T03:33:17.377Z,101992.94
2022-09-11T03:35:44.863Z,101992.94
2022-09-11T03:38:12.662Z,101997.94
2022-09-11T03:40:41.931Z,101992.72
2022-09-11T03:43:09.553Z,101999.25
2022-09-11T03:45:36.400Z,101993.50
2022-09-11T03:48:03.277Z,101999.81
2022-09-11T03:50:30.156Z,101988.28
2022-09-11T03:52:58.193Z,101985.16
2022-09-11T03:55:24.934Z,101986.97
2022-09-11T03:57:51.664Z,101993.28
2022-09-11T04:00:18.495Z,101991.69
2022-09-11T04:02:45.285Z,101989.88
2022-09-11T04:05:12.010Z,101987.78
2022-09-11T04:07:38.852Z,101989.63
2022-09-11T04:10:06.925Z,101990.94
2022-09-11T04:12:33.924Z,101997.53
2022-09-11T04:15:02.351Z,101994.66
2022-09-11T04:17:31.966Z,101995.97
2022-09-11T04:19:58.660Z,101997.00
2022-09-11T04:22:26.347Z,102007.47
2022-09-11T04:24:53.156Z,102010.66
2022-09-11T04:27:23.578Z,102008.03
2022-09-11T04:29:50.579Z,102005.97
2022-09-11T04:32:17.268Z,102007.25
2022-09-11T04:34:44.017Z,101998.88
2022-09-11T04:37:11.783Z,101998.88
2022-09-11T04:39:38.568Z,102008.31
2022-09-11T04:42:05.511Z,102009.34
2022-09-11T04:44:32.787Z,101997.31
2022-09-11T04:46:59.807Z,102009.09
2022-09-11T04:49:26.755Z,102010.38
2022-09-11T04:51:55.068Z,102026.63
2022-09-11T04:54:21.870Z,102018.78
2022-09-11T04:56:49.135Z,102010.13
2022-09-11T04:59:22.581Z,102011.44
2022-09-11T05:01:49.587Z,102009.88
2022-09-11T05:04:22.915Z,102018.78
2022-09-11T05:06:52.350Z,102016.16
2022-09-11T05:09:19.551Z,102019.03
2022-09-11T05:11:46.771Z,102025.59
2022-09-11T05:14:13.524Z,102033.16
2022-09-11T05:16:40.578Z,102039.22
2022-09-11T05:19:07.413Z,102040.50
2022-09-11T05:21:34.736Z,102038.94
2022-09-11T05:24:02.538Z,102040.50
2022-09-11T05:26:32.145Z,102042.09
2022-09-11T05:29:15.941Z,102040.75
2022-09-11T05:31:43.211Z,102052.03
2022-09-11T05:34:09.990Z,102049.94
2022-09-11T05:36:37.180Z,102058.84
2022-09-11T05:39:05.483Z,102062.53
2022-09-11T05:41:32.318Z,102061.47
2022-09-11T05:43:59.407Z,102063.84
2022-09-11T05:46:26.166Z,102067.75
2022-09-11T05:48:53.716Z,102077.19
2022-09-11T05:51:21.835Z,102077.19
2022-09-11T05:53:53.121Z,102077.44
2022-09-11T05:56:22.750Z,102081.09
2022-09-11T05:58:51.948Z,102080.03
2022-09-11T06:01:21.461Z,102085.53
2022-09-11T06:03:49.683Z,102083.41
2022-09-11T06:06:18.755Z,102085.53
2022-09-11T06:08:47.565Z,102077.66
2022-09-11T06:11:16.955Z,102084.97
2022-09-11T06:13:46.587Z,102087.06
2022-09-11T06:16:19.056Z,102083.38
2022-09-11T06:18:50.347Z,102089.66
2022-09-11T06:21:23.348Z,102094.91
2022-09-11T06:23:52.128Z,102099.34
2022-09-11T06:26:21.938Z,102098.53
2022-09-11T06:28:48.919Z,102099.03
2022-09-11T06:31:18.679Z,102098.47
2022-09-11T06:33:46.975Z,102097.91
2022-09-11T06:36:17.503Z,102104.72
2022-09-11T06:38:44.667Z,102097.34
2022-09-11T06:41:14.383Z,102103.84
2022-09-11T06:43:42.554Z,102105.13
2022-09-11T06:46:15.062Z,102103.53
2022-09-11T06:48:44.248Z,102109.78
2022-09-11T06:51:13.108Z,102114.47
2022-09-11T06:53:41.418Z,102108.13
2022-09-11T06:56:12.955Z,102109.66
2022-09-11T06:58:41.317Z,102104.31
2022-09-11T07:01:11.817Z,102101.09
2022-09-11T07:03:42.049Z,102110.44
2022-09-11T07:06:08.867Z,102105.63
2022-09-11T07:08:35.706Z,102113.97
2022-09-11T07:11:04.916Z,102113.38
2022-09-11T07:13:37.151Z,102114.84
2022-09-11T07:16:09.872Z,102121.56
2022-09-11T07:18:45.609Z,102114.84
2022-09-11T07:21:14.001Z,102126.06
2022-09-11T07:23:42.383Z,102122.28
2022-09-11T07:26:13.041Z,102123.19
2022-09-11T07:28:40.469Z,102125.50
2022-09-11T07:31:16.281Z,102134.03
2022-09-11T07:33:48.236Z,102127.88
2022-09-11T07:36:17.725Z,102128.59
2022-09-11T07:38:47.144Z,102128.72
2022-09-11T07:41:15.689Z,102138.06
2022-09-11T07:43:45.617Z,102140.81
2022-09-11T07:46:13.663Z,102139.91
2022-09-11T07:48:42.957Z,102136.34
2022-09-11T07:51:13.046Z,102140.81
2022-09-11T07:53:46.264Z,102146.47
2022-09-11T07:56:19.007Z,102142.78
2022-09-11T07:58:46.272Z,102149.53
2022-09-11T08:01:16.275Z,102140.47
2022-09-11T08:03:44.174Z,102145.56
2022-09-11T08:06:16.837Z,102145.81
2022-09-11T08:08:46.212Z,102142.97
2022-09-11T08:11:18.237Z,102146.69
2022-09-11T08:13:50.966Z,102147.16
2022-09-11T08:16:19.593Z,102149.88
2022-09-11T08:18:46.807Z,102150.84
2022-09-11T08:21:14.231Z,102143.28
2022-09-11T08:23:42.851Z,102145.28
2022-09-11T08:26:12.045Z,102149.78
2022-09-11T08:28:41.368Z,102147.81
2022-09-11T08:31:08.261Z,102153.66
2022-09-11T08:33:35.404Z,102154.47
2022-09-11T08:36:05.231Z,102156.03
2022-09-11T08:38:33.608Z,102154.19
2022-09-11T08:41:13.014Z,102160.81
2022-09-11T08:43:50.976Z,102160.56
2022-09-11T08:46:21.478Z,102165.31
2022-09-11T08:49:00.707Z,102169.19
2022-09-11T08:51:27.794Z,102168.44
2022-09-11T08:53:57.151Z,102171.25
2022-09-11T08:56:29.389Z,102173.13
2022-09-11T08:59:18.895Z,102169.53
2022-09-11T09:02:07.050Z,102169.38
2022-09-11T09:04:59.465Z,102175.06
2022-09-11T09:07:26.174Z,102173.91
2022-09-11T09:10:14.035Z,102173.72
2022-09-11T09:12:47.257Z,102172.44
2022-09-11T09:15:29.318Z,102177.38
2022-09-11T09:18:05.447Z,102172.78
2022-09-11T09:20:43.670Z,102174.56
2022-09-11T09:23:19.948Z,102176.97
2022-09-11T09:25:48.309Z,102179.91
2022-09-11T09:28:25.529Z,102177.00
2022-09-11T09:31:02.939Z,102171.00
2022-09-11T09:33:35.454Z,102170.41
2022-09-11T09:36:11.312Z,102173.06
2022-09-11T09:38:38.185Z,102173.19
2022-09-11T09:41:33.280Z,102182.84
2022-09-11T09:44:28.047Z,102179.41
2022-09-11T09:46:56.176Z,102181.63
2022-09-11T09:49:29.837Z,102183.38
2022-09-11T09:52:03.587Z,102185.72
2022-09-11T09:54:36.652Z,102179.50
2022-09-11T09:57:10.633Z,102185.19
2022-09-11T09:59:45.864Z,102176.81
2022-09-11T10:02:12.734Z,102182.59
2022-09-11T10:04:39.483Z,102176.69
2022-09-11T10:07:11.477Z,102170.16
2022-09-11T10:09:47.091Z,102164.22
2022-09-11T10:12:26.690Z,102158.63
2022-09-11T10:14:55.999Z,102161.13
2022-09-11T10:17:31.395Z,102165.41
2022-09-11T10:20:19.378Z,102165.31
2022-09-11T10:22:46.787Z,102165.13
2022-09-11T10:25:18.562Z,102168.41
2022-09-11T10:28:11.528Z,102171.47
2022-09-11T10:30:41.694Z,102173.31
2022-09-11T10:33:49.515Z,102163.28
2022-09-11T10:36:23.371Z,102171.72
2022-09-11T10:38:50.542Z,102174.16
2022-09-11T10:41:23.506Z,102173.38
2022-09-11T10:44:00.639Z,102166.06
2022-09-11T10:46:29.078Z,102169.47
2022-09-11T10:48:55.780Z,102164.59
2022-09-11T10:51:25.237Z,102169.06
2022-09-11T10:54:19.675Z,102167.63
2022-09-11T10:57:07.943Z,102166.09
2022-09-11T10:59:41.012Z,102160.41
2022-09-11T11:02:19.519Z,102161.41
2022-09-11T11:04:47.583Z,102168.28
2022-09-11T11:07:28.921Z,102173.72
2022-09-11T11:10:59.258Z,102166.69
2022-09-11T11:13:39.550Z,102163.50
2022-09-11T11:16:40.185Z,102179.25
2022-09-11T11:19:09.710Z,102176.53
2022-09-11T11:21:45.584Z,102175.47
2022-09-11T11:24:32.419Z,102172.97
2022-09-11T11:27:17.726Z,102165.66
2022-09-11T11:30:21.495Z,102171.34
2022-09-11T11:33:00.007Z,102176.22
2022-09-11T11:36:00.749Z,102175.03
2022-09-11T11:38:36.700Z,102168.78
2022-09-11T11:41:19.665Z,102175.66
2022-09-11T11:43:50.022Z,102165.25
2022-09-11T11:46:39.053Z,102162.72
2022-09-11T11:49:13.588Z,102170.03
2022-09-11T11:52:05.199Z,102160.41
2022-09-11T11:54:46.735Z,102163.50
2022-09-11T11:57:21.011Z,102166.19
2022-09-11T11:59:59.550Z,102162.75
2022-09-11T12:02:43.373Z,102164.25
2022-09-11T12:05:24.258Z,102157.50
2022-09-11T12:07:51.861Z,102154.63
2022-09-11T12:10:22.951Z,102154.25
2022-09-11T12:13:15.526Z,102147.78
2022-09-11T12:16:13.333Z,102147.31
2022-09-11T12:18:42.536Z,102151.31
2022-09-11T12:21:42.838Z,102152.53
2022-09-11T12:24:13.232Z,102149.44
2022-09-11T12:26:40.071Z,102147.75
2022-09-11T12:29:16.063Z,102150.88
2022-09-11T12:31:52.145Z,102146.41
2022-09-11T12:34:24.410Z,102142.38
2022-09-11T12:37:02.453Z,102138.81
2022-09-11T12:39:45.937Z,102133.69
2022-09-11T12:42:23.202Z,102143.75
2022-09-11T12:44:49.891Z,102141.75
2022-09-11T12:47:43.207Z,102140.88
2022-09-11T12:50:12.877Z,102134.19
2022-09-11T12:52:45.599Z,102129.56
2022-09-11T12:55:33.733Z,102129.63
2022-09-11T12:58:04.319Z,102125.81
2022-09-11T13:00:40.883Z,102127.72
2022-09-11T13:03:17.953Z,102119.94
2022-09-11T13:06:03.351Z,102120.47
2022-09-11T13:08:34.789Z,102121.75
2022-09-11T13:11:43.047Z,102133.50
2022-09-11T13:14:28.275Z,102130.06
2022-09-11T13:16:56.405Z,102120.91
2022-09-11T13:19:23.779Z,102119.94
2022-09-11T13:21:52.414Z,102123.50
2022-09-11T13:24:35.937Z,102119.94
2022-09-11T13:27:08.785Z,102112.03
2022-09-11T13:29:38.700Z,102110.16
2022-09-11T13:32:13.824Z,102115.72
2022-09-11T13:34:46.387Z,102107.25
2022-09-11T13:37:23.795Z,102107.50
2022-09-11T13:39:50.629Z,102103.91
2022-09-11T13:42:23.381Z,102099.66
2022-09-11T13:44:55.993Z,102104.09
2022-09-11T13:47:28.478Z,102096.81
2022-09-11T13:50:02.155Z,102094.88
2022-09-11T13:52:32.460Z,102095.06
2022-09-11T13:55:04.627Z,102094.34
2022-09-11T13:57:32.245Z,102095.06
2022-09-11T14:00:00.557Z,102081.50
2022-09-11T14:02:44.619Z,102078.19
2022-09-11T14:05:16.170Z,102066.63
2022-09-11T14:07:52.040Z,102073.41
2022-09-11T14:10:26.904Z,102074.06
2022-09-11T14:12:59.003Z,102075.31
2022-09-11T14:15:35.490Z,102066.03
2022-09-11T14:18:05.178Z,102066.13
2022-09-11T14:20:33.132Z,102066.50
2022-09-11T14:23:05.841Z,102071.22
2022-09-11T14:25:34.213Z,102060.34
2022-09-11T14:28:02.412Z,102056.59
2022-09-11T14:30:37.669Z,102057.69
2022-09-11T14:33:16.705Z,102054.53
2022-09-11T14:35:46.945Z,102058.13
2022-09-11T14:38:16.244Z,102047.88
2022-09-11T14:40:56.699Z,102056.81
2022-09-11T14:43:31.378Z,102055.44
2022-09-11T14:46:00.163Z,102059.16
2022-09-11T14:48:29.012Z,102056.06
2022-09-11T14:50:56.130Z,102051.00
2022-09-11T14:53:34.565Z,102056.25
2022-09-11T14:56:02.857Z,102056.16
2022-09-11T14:58:30.779Z,102052.63
2022-09-11T15:00:57.816Z,102058.53
2022-09-11T15:03:25.759Z,102039.31
2022-09-11T15:05:58.728Z,102044.56
2022-09-11T15:08:25.853Z,102039.81
2022-09-11T15:10:53.825Z,102036.88
2022-09-11T15:13:21.829Z,102034.81
2022-09-11T15:15:48.753Z,102042.63
2022-09-11T15:18:15.618Z,102039.19
2022-09-11T15:20:42.400Z,102039.91
2022-09-11T15:23:09.306Z,102045.38
2022-09-11T15:25:36.142Z,102039.03
2022-09-11T15:28:03.185Z,102031.19
2022-09-11T15:30:30.127Z,102028.78
2022-09-11T15:32:56.978Z,102031.06
2022-09-11T15:35:23.872Z,102026.81
2022-09-11T15:37:51.058Z,102021.34
2022-09-11T15:40:19.000Z,102023.84
2022-09-11T15:42:48.962Z,102020.03
2022-09-11T15:45:17.122Z,102028.47
2022-09-11T15:47:44.708Z,102019.72
2022-09-11T15:50:11.964Z,102024.59
2022-09-11T15:52:40.993Z,102017.63
2022-09-11T15:55:10.085Z,102016.44
2022-09-11T15:57:37.020Z,102012.47
2022-09-11T16:00:04.910Z,102013.28
2022-09-11T16:02:31.697Z,102004.78
2022-09-11T16:05:00.144Z,102004.97
2022-09-11T16:07:26.856Z,102001.53
2022-09-11T16:09:54.532Z,102008.75
2022-09-11T16:12:21.377Z,102010.00
2022-09-11T16:14:48.407Z,102007.22
2022-09-11T16:17:19.510Z,102009.75
2022-09-11T16:19:46.776Z,102011.53
2022-09-11T16:22:13.621Z,102008.69
2022-09-11T16:24:40.458Z,102002.56
2022-09-11T16:27:10.044Z,101997.06
2022-09-11T16:30:09.418Z,102004.03
2022-09-11T16:32:37.615Z,102013.53
2022-09-11T16:35:05.040Z,102001.13
2022-09-11T16:37:34.049Z,102000.53
2022-09-11T16:40:02.545Z,102002.66
2022-09-11T16:42:29.806Z,102000.53
2022-09-11T16:44:56.607Z,101996.84
2022-09-11T16:47:23.781Z,101988.97
2022-09-11T16:50:06.310Z,101989.06
2022-09-11T16:52:34.937Z,101980.09
2022-09-11T16:55:02.081Z,101973.88
2022-09-11T16:57:29.238Z,101976.72
2022-09-11T16:59:56.104Z,101979.28
2022-09-11T17:02:22.828Z,101971.81
2022-09-11T17:04:49.767Z,101977.34
2022-09-11T17:07:16.560Z,101986.63
2022-09-11T17:09:44.006Z,101978.69
2022-09-11T17:12:11.726Z,101976.56
2022-09-11T17:14:38.968Z,101985.06
2022-09-11T17:17:05.981Z,101984.31
2022-09-11T17:19:32.826Z,101984.09
2022-09-11T17:22:00.227Z,101988.78
2022-09-11T17:24:27.419Z,101979.78
2022-09-11T17:26:56.058Z,101981.38
2022-09-11T17:29:23.003Z,101979.72
2022-09-11T17:32:01.067Z,101973.03
2022-09-11T17:34:37.399Z,101975.41
2022-09-11T17:37:04.277Z,101972.50
2022-09-11T17:39:31.155Z,101965.81
2022-09-11T17:41:58.034Z,101961.75
2022-09-11T17:44:25.005Z,101957.25
2022-09-11T17:46:52.321Z,101959.19
2022-09-11T17:49:19.332Z,101965.31
2022-09-11T17:51:46.208Z,101961.59
2022-09-11T17:54:13.083Z,101961.63
2022-09-11T17:56:40.091Z,101965.84
2022-09-11T17:59:06.957Z,101966.31
2022-09-11T18:01:33.791Z,101962.91
2022-09-11T18:04:00.734Z,101965.59
2022-09-11T18:06:30.284Z,101969.81
2022-09-11T18:09:04.674Z,101973.22
2022-09-11T18:11:32.327Z,101966.06
2022-09-11T18:14:00.457Z,101971.81
2022-09-11T18:16:27.673Z,101970.41
2022-09-11T18:18:55.781Z,101971.19
2022-09-11T18:21:23.175Z,101975.06
2022-09-11T18:23:49.987Z,101977.09
2022-09-11T18:26:29.787Z,101972.56
2022-09-11T18:29:02.351Z,101973.81
2022-09-11T18:31:31.446Z,101975.03
2022-09-11T18:34:00.752Z,101966.78
2022-09-11T18:36:29.696Z,101961.63
2022-09-11T18:39:00.143Z,101963.34
2022-09-11T18:41:28.440Z,101962.69
2022-09-11T18:43:56.991Z,101963.16
2022-09-11T18:46:25.517Z,101973.84
2022-09-11T18:48:52.869Z,101974.00
2022-09-11T18:51:20.314Z,101970.69
2022-09-11T18:53:48.910Z,101969.56
2022-09-11T18:56:15.786Z,101983.38
2022-09-11T18:58:42.650Z,101978.25
2022-09-11T19:01:11.794Z,101971.53
2022-09-11T19:03:42.371Z,101969.00
2022-09-11T19:06:11.916Z,101964.94
2022-09-11T19:08:40.569Z,101968.03
2022-09-11T19:11:09.300Z,101964.25
2022-09-11T19:13:37.241Z,101959.41
2022-09-11T19:16:05.339Z,101969.31
2022-09-11T19:18:33.672Z,101963.09
2022-09-11T19:21:04.108Z,101965.81
2022-09-11T19:23:37.548Z,101971.25
2022-09-11T19:26:06.350Z,101972.94
2022-09-11T19:28:37.924Z,101967.47
2022-09-11T19:31:06.410Z,101973.66
2022-09-11T19:33:35.324Z,101971.56
2022-09-11T19:36:04.887Z,101973.53
2022-09-11T19:38:33.065Z,101975.81
2022-09-11T19:41:02.967Z,101980.13
2022-09-11T19:43:31.380Z,101975.44
2022-09-11T19:46:11.791Z,101979.75
2022-09-11T19:48:39.835Z,101982.22
2022-09-11T19:51:13.341Z,101979.69
2022-09-11T19:53:41.963Z,101981.84
2022-09-11T19:56:11.537Z,101977.75
2022-09-11T19:58:39.356Z,101988.88
2022-09-11T20:01:11.664Z,101977.69
2022-09-11T20:03:40.172Z,101989.59
2022-09-11T20:06:08.591Z,101988.63
2022-09-11T20:08:37.172Z,101980.81
2022-09-11T20:11:07.354Z,101987.78
2022-09-11T20:13:35.421Z,101978.88
2022-09-11T20:16:07.311Z,101983.97
2022-09-11T20:18:34.991Z,101987.97
2022-09-11T20:21:06.604Z,101982.00
2022-09-11T20:23:35.243Z,101980.22
2022-09-11T20:26:19.116Z,101972.72
2022-09-11T20:28:48.525Z,101971.47
2022-09-11T20:31:20.994Z,101974.69
2022-09-11T20:33:49.686Z,101965.78
2022-09-11T20:36:18.383Z,101971.66
2022-09-11T20:38:50.392Z,101968.78
2022-09-11T20:41:17.392Z,101965.47
2022-09-11T20:43:44.712Z,101973.97
2022-09-11T20:46:11.741Z,101966.63
2022-09-11T20:48:38.683Z,101968.28
2022-09-11T20:51:11.394Z,101965.94
2022-09-11T20:53:41.894Z,101962.81
2022-09-11T20:56:11.249Z,101966.31
2022-09-11T20:58:39.012Z,101965.41
2022-09-11T21:01:07.448Z,101957.84
2022-09-11T21:03:34.748Z,101958.13
2022-09-11T21:06:08.919Z,101956.34
2022-09-11T21:08:36.224Z,101955.06
2022-09-11T21:11:05.276Z,101951.94
2022-09-11T21:13:36.928Z,101957.81
2022-09-11T21:16:09.369Z,101950.47
2022-09-11T21:18:36.439Z,101954.47
2022-09-11T21:21:03.908Z,101952.69
2022-09-11T21:23:32.379Z,101946.94
2022-09-11T21:25:59.548Z,101955.50
2022-09-11T21:28:26.541Z,101955.56
2022-09-11T21:30:53.521Z,101947.19
2022-09-11T21:33:20.376Z,101950.88
2022-09-11T21:35:55.053Z,101959.84
2022-09-11T21:38:28.811Z,101955.44
2022-09-11T21:40:57.806Z,101957.88
2022-09-11T21:43:25.058Z,101953.16
2022-09-11T21:45:52.105Z,101959.00
2022-09-11T21:48:19.059Z,101955.38
2022-09-11T21:50:46.100Z,101967.28
2022-09-11T21:53:13.096Z,101957.03
2022-09-11T21:55:45.526Z,101963.63
2022-09-11T21:58:19.534Z,101968.69
2022-09-11T22:00:51.358Z,101964.56
2022-09-11T22:03:19.419Z,101966.91
2022-09-11T22:05:49.332Z,101966.41
2022-09-11T22:08:18.737Z,101965.09
2022-09-11T22:10:48.450Z,101955.16
2022-09-11T22:13:17.078Z,101961.75
2022-09-11T22:15:46.025Z,101957.06
2022-09-11T22:18:13.529Z,101959.19
2022-09-11T22:20:41.814Z,101957.13
2022-09-11T22:23:14.962Z,101951.63
2022-09-11T22:25:42.153Z,101957.97
2022-09-11T22:28:09.564Z,101950.66
2022-09-11T22:30:40.563Z,101950.72
2022-09-11T22:33:07.605Z,101944.19
2022-09-11T22:35:35.122Z,101960.50
2022-09-11T22:38:02.219Z,101948.50
2022-09-11T22:40:29.200Z,101952.47
2022-09-11T22:42:56.150Z,101955.88
2022-09-11T22:45:22.895Z,101950.63
2022-09-11T22:47:50.042Z,101949.34
2022-09-11T22:50:17.403Z,101951.75
2022-09-11T22:52:44.602Z,101950.47
2022-09-11T22:55:11.657Z,101948.69
2022-09-11T22:57:39.161Z,101940.00
2022-09-11T23:00:08.481Z,101939.78
2022-09-11T23:02:36.338Z,101948.25
2022-09-11T23:05:23.874Z,101936.44
2022-09-11T23:07:51.995Z,101938.56
2022-09-11T23:10:23.774Z,101939.13
2022-09-11T23:12:53.961Z,101940.19
2022-09-11T23:15:21.829Z,101938.13
2022-09-11T23:17:48.683Z,101925.28
2022-09-11T23:20:16.345Z,101931.09
2022-09-11T23:22:43.275Z,101931.13
2022-09-11T23:25:11.320Z,101927.22
2022-09-11T23:27:38.252Z,101925.66
2022-09-11T23:30:05.760Z,101923.59
2022-09-11T23:32:32.862Z,101925.72
2022-09-11T23:34:59.808Z,101910.50
2022-09-11T23:37:26.905Z,101914.75
2022-09-11T23:39:53.911Z,101916.38
2022-09-11T23:42:21.105Z,101917.72
2022-09-11T23:44:47.854Z,101912.75
2022-09-11T23:47:14.954Z,101917.50
2022-09-11T23:49:43.429Z,101912.81
2022-09-11T23:52:10.321Z,101918.88
2022-09-11T23:54:37.584Z,101911.84
2022-09-11T23:57:05.807Z,101910.25
2022-09-11T23:59:36.003Z,101907.13
